createdAt,value
2018-04-18T00:01:15.041Z,12.10
2018-04-18T00:03:42.926Z,12.00
2018-04-18T00:06:12.405Z,12.00
2018-04-18T00:08:40.814Z,12.10
2018-04-18T00:11:11.755Z,12.00
2018-04-18T00:13:40.060Z,12.10
2018-04-18T00:16:08.849Z,12.00
2018-04-18T00:18:36.766Z,12.00
2018-04-18T00:21:06.482Z,12.00
2018-04-18T00:23:35.791Z,11.90
2018-04-18T00:26:05.676Z,11.80
2018-04-18T00:28:42.934Z,11.80
2018-04-18T00:31:13.110Z,11.80
2018-04-18T00:33:42.351Z,11.80
2018-04-18T00:36:10.757Z,11.80
2018-04-18T00:38:39.599Z,11.70
2018-04-18T00:41:08.345Z,11.70
2018-04-18T00:43:36.240Z,11.70
2018-04-18T00:49:30.067Z,11.50
2018-04-18T00:51:58.750Z,11.50
2018-04-18T00:54:28.848Z,11.50
2018-04-18T00:56:57.239Z,11.40
2018-04-18T00:59:26.714Z,11.30
2018-04-18T01:01:56.291Z,11.30
2018-04-18T01:04:26.252Z,11.20
2018-04-18T01:06:56.442Z,11.20
2018-04-18T01:09:30.913Z,11.10
2018-04-18T01:12:01.476Z,11.00
2018-04-18T01:15:05.731Z,11.00
2018-04-18T01:17:33.328Z,10.90
2018-04-18T01:20:01.187Z,10.90
2018-04-18T01:22:29.999Z,10.80
2018-04-18T01:24:57.976Z,10.80
2018-04-18T01:27:27.695Z,10.70
2018-04-18T01:30:04.933Z,10.80
2018-04-18T01:32:32.610Z,10.70
2018-04-18T01:35:02.627Z,10.70
2018-04-18T01:37:32.527Z,10.70
2018-04-18T01:40:01.796Z,10.70
2018-04-18T01:42:33.508Z,10.70
2018-04-18T01:45:15.230Z,10.70
2018-04-18T01:47:42.831Z,10.70
2018-04-18T01:50:15.807Z,10.60
2018-04-18T01:52:44.687Z,10.60
2018-04-18T01:55:13.414Z,10.50
2018-04-18T01:57:42.357Z,10.50
2018-04-18T02:00:10.257Z,10.40
2018-04-18T02:18:55.020Z,10.10
2018-04-18T02:21:23.735Z,10.10
2018-04-18T02:23:51.502Z,10.00
2018-04-18T02:26:21.519Z,9.90
2018-04-18T02:28:50.692Z,9.80
2018-04-18T02:31:56.124Z,9.80
2018-04-18T02:34:26.152Z,9.80
2018-04-18T02:36:54.485Z,9.80
2018-04-18T02:39:24.797Z,9.70
2018-04-18T02:41:53.762Z,9.70
2018-04-18T02:44:21.788Z,9.70
2018-04-18T02:46:51.303Z,9.70
2018-04-18T02:49:19.566Z,9.70
2018-04-18T02:51:48.749Z,9.70
2018-04-18T02:54:16.337Z,9.80
2018-04-18T02:56:45.512Z,9.80
2018-04-18T02:59:14.484Z,9.80
2018-04-18T03:02:22.227Z,9.80
2018-04-18T03:04:51.979Z,9.80
2018-04-18T03:07:22.936Z,9.80
2018-04-18T03:09:50.932Z,9.90
2018-04-18T03:12:20.501Z,9.90
2018-04-18T03:14:50.597Z,9.90
2018-04-18T03:17:18.435Z,9.80
2018-04-18T03:19:47.473Z,9.80
2018-04-18T03:22:16.561Z,9.80
2018-04-18T03:24:45.768Z,9.80
2018-04-18T03:27:15.585Z,9.70
2018-04-18T03:29:46.884Z,9.70
2018-04-18T03:32:16.783Z,9.70
2018-04-18T03:34:46.777Z,9.60
2018-04-18T03:37:15.884Z,9.60
2018-04-18T03:39:45.823Z,9.60
2018-04-18T03:42:16.255Z,9.60
2018-04-18T03:44:45.880Z,9.60
2018-04-18T03:47:14.744Z,9.70
2018-04-18T03:49:42.315Z,9.70
2018-04-18T03:52:10.559Z,9.70
2018-04-18T03:54:38.178Z,9.70
2018-04-18T03:57:06.116Z,9.70
2018-04-18T03:59:36.077Z,9.70
2018-04-18T04:02:04.148Z,9.70
2018-04-18T04:04:32.345Z,9.70
2018-04-18T04:07:01.256Z,9.70
2018-04-18T04:09:31.810Z,9.70
2018-04-18T04:12:02.235Z,9.70
2018-04-18T04:14:30.331Z,9.80
2018-04-18T04:17:11.825Z,9.80
2018-04-18T04:20:03.128Z,9.70
2018-04-18T04:22:44.349Z,9.70
2018-04-18T04:25:14.738Z,9.80
2018-04-18T04:27:47.608Z,9.80
2018-04-18T04:30:17.870Z,9.90
2018-04-18T04:33:00.274Z,9.90
2018-04-18T04:35:29.512Z,9.80
2018-04-18T04:37:58.963Z,9.70
2018-04-18T04:40:28.607Z,9.70
2018-04-18T04:42:56.838Z,9.70
2018-04-18T04:45:24.409Z,9.60
2018-04-18T04:47:53.662Z,9.60
2018-04-18T04:50:21.869Z,9.70
2018-04-18T04:52:49.407Z,9.60
2018-04-18T04:55:18.621Z,9.60
2018-04-18T04:57:49.356Z,9.70
2018-04-18T05:00:18.214Z,9.60
2018-04-18T05:02:46.426Z,9.60
2018-04-18T05:05:15.244Z,9.60
2018-04-18T05:07:42.846Z,9.70
2018-04-18T05:10:10.396Z,9.70
2018-04-18T05:12:38.521Z,9.70
2018-04-18T05:15:06.486Z,9.70
2018-04-18T05:17:34.963Z,9.80
2018-04-18T05:20:02.825Z,9.80
2018-04-18T05:22:30.422Z,9.80
2018-04-18T05:25:02.339Z,9.90
2018-04-18T05:27:33.501Z,9.90
2018-04-18T05:30:05.652Z,10.10
2018-04-18T05:32:38.192Z,10.10
2018-04-18T05:35:05.897Z,10.10
2018-04-18T05:37:33.729Z,10.10
2018-04-18T05:40:01.458Z,10.20
2018-04-18T05:42:30.358Z,10.40
2018-04-18T05:45:01.543Z,10.40
2018-04-18T05:47:35.405Z,10.40
2018-04-18T05:50:04.884Z,10.50
2018-04-18T05:52:32.685Z,10.60
2018-04-18T05:55:00.244Z,10.70
2018-04-18T05:57:28.156Z,10.70
2018-04-18T05:59:58.666Z,10.80
2018-04-18T06:02:31.355Z,10.90
2018-04-18T06:05:03.065Z,11.00
2018-04-18T06:07:30.622Z,11.10
2018-04-18T06:09:59.221Z,11.30
2018-04-18T06:12:29.806Z,11.40
2018-04-18T06:14:57.383Z,11.60
2018-04-18T06:17:29.856Z,11.70
2018-04-18T06:19:59.642Z,12.10
2018-04-18T06:22:35.137Z,12.10
2018-04-18T06:25:08.219Z,12.30
2018-04-18T06:27:47.146Z,12.80
2018-04-18T06:30:18.423Z,12.80
2018-04-18T06:32:52.996Z,13.00
2018-04-18T06:35:20.849Z,13.20
2018-04-18T06:37:48.391Z,13.30
2018-04-18T06:40:17.482Z,14.00
2018-04-18T06:42:45.053Z,14.00
2018-04-18T06:45:12.604Z,14.30
2018-04-18T06:47:40.864Z,14.50
2018-04-18T06:50:16.557Z,14.60
2018-04-18T06:52:44.317Z,14.70
2018-04-18T06:55:12.157Z,14.70
2018-04-18T06:57:39.711Z,14.90
2018-04-18T07:00:07.969Z,14.90
2018-04-18T07:02:44.066Z,15.20
2018-04-18T07:05:21.035Z,15.10
2018-04-18T07:07:53.105Z,15.20
2018-04-18T11:59:38.705Z,28.20
2018-04-18T12:02:08.944Z,27.90
2018-04-18T12:04:37.634Z,28.10
2018-04-18T12:07:05.181Z,27.70
2018-04-18T12:10:04.501Z,28.10
2018-04-18T12:12:37.992Z,28.00
2018-04-18T12:15:05.692Z,27.50
2018-04-18T12:17:34.183Z,27.20
2018-04-18T12:20:01.981Z,27.10
2018-04-18T12:22:31.012Z,27.00
2018-04-18T12:25:01.599Z,26.90
2018-04-18T12:27:36.329Z,26.70
2018-04-18T12:30:09.693Z,26.40
2018-04-18T12:35:22.400Z,26.20
2018-04-18T12:37:55.297Z,25.80
2018-04-18T12:41:04.122Z,25.50
2018-04-18T12:43:38.087Z,25.60
2018-04-18T12:46:12.126Z,25.20
2018-04-18T12:48:39.686Z,25.00
2018-04-18T12:51:09.030Z,24.70
2018-04-18T12:53:36.911Z,24.60
2018-04-18T12:56:05.696Z,24.80
2018-04-18T12:58:35.945Z,24.70
2018-04-18T13:01:10.482Z,24.80
2018-04-18T13:03:44.328Z,24.80
2018-04-18T13:06:15.262Z,24.70
2018-04-18T13:08:46.811Z,24.80
2018-04-18T13:11:36.543Z,24.70
2018-04-18T13:14:04.173Z,24.80
2018-04-18T13:16:33.157Z,24.80
2018-04-18T13:19:01.052Z,24.80
2018-04-18T13:21:28.843Z,24.90
2018-04-18T13:23:57.166Z,24.90
2018-04-18T13:26:26.314Z,24.90
2018-04-18T13:28:57.506Z,24.80
2018-04-18T13:31:25.919Z,24.80
2018-04-18T13:33:53.481Z,24.60
2018-04-18T13:36:25.884Z,24.40
2018-04-18T13:38:53.445Z,24.30
2018-04-18T13:41:26.839Z,24.40
2018-04-18T13:44:01.184Z,24.40
2018-04-18T13:46:32.998Z,24.60
2018-04-18T13:49:01.113Z,24.60
2018-04-18T13:51:29.438Z,24.90
2018-04-18T13:53:56.992Z,25.00
2018-04-18T13:56:30.163Z,25.10
2018-04-18T13:59:02.583Z,25.30
2018-04-18T14:01:37.703Z,25.10
2018-04-18T14:04:11.242Z,25.10
2018-04-18T14:06:43.448Z,24.90
2018-04-18T14:09:12.230Z,25.00
2018-04-18T14:12:01.529Z,25.10
2018-04-18T14:14:31.596Z,25.10
2018-04-18T14:16:59.871Z,25.10
2018-04-18T14:19:27.839Z,25.00
2018-04-18T14:21:57.610Z,24.80
2018-04-18T14:24:33.229Z,24.90
2018-04-18T14:27:02.233Z,24.90
2018-04-18T14:29:31.664Z,25.00
2018-04-18T14:32:06.123Z,25.30
2018-04-18T14:34:37.872Z,25.20
2018-04-18T14:37:12.212Z,25.30
2018-04-18T14:39:42.791Z,25.30
2018-04-18T14:42:10.388Z,25.30
2018-04-18T14:44:38.509Z,25.30
2018-04-18T14:47:06.070Z,25.30
2018-04-18T14:49:37.275Z,25.30
2018-04-18T14:52:08.704Z,25.10
2018-04-18T14:54:45.508Z,24.90
2018-04-18T14:57:57.585Z,24.70
2018-04-18T15:00:25.308Z,24.70
2018-04-18T15:02:58.903Z,24.70
2018-04-18T15:05:29.654Z,24.70
2018-04-18T15:07:58.563Z,24.60
2018-04-18T15:10:26.754Z,24.50
2018-04-18T15:12:57.849Z,24.40
2018-04-18T15:15:25.402Z,24.30
2018-04-18T15:18:00.043Z,24.20
2018-04-18T15:20:33.425Z,24.10
2018-04-18T15:23:08.589Z,24.10
2018-04-18T15:25:45.708Z,24.10
2018-04-18T15:37:54.123Z,24.00
2018-04-18T15:40:22.308Z,23.80
2018-04-18T15:42:51.182Z,23.80
2018-04-18T15:45:20.741Z,23.70
2018-04-18T15:47:49.071Z,23.70
2018-04-18T15:50:16.626Z,23.80
2018-04-18T15:52:45.519Z,23.70
2018-04-18T15:55:13.551Z,23.70
2018-04-18T15:57:43.712Z,23.70
2018-04-18T16:00:19.401Z,23.60
2018-04-18T16:02:51.999Z,23.60
2018-04-18T16:05:22.114Z,23.50
2018-04-18T16:07:50.536Z,23.50
2018-04-18T16:10:19.398Z,23.50
2018-04-18T16:13:00.668Z,23.40
2018-04-18T16:15:29.906Z,23.30
2018-04-18T16:18:00.918Z,23.30
2018-04-18T16:20:31.676Z,23.30
2018-04-18T16:23:02.050Z,23.30
2018-04-18T16:25:32.429Z,23.20
2018-04-18T16:28:00.729Z,23.10
2018-04-18T16:30:40.152Z,23.20
2018-04-18T16:33:07.905Z,23.00
2018-04-18T16:35:36.066Z,22.90
2018-04-18T16:38:05.112Z,23.00
2018-04-18T16:40:34.086Z,22.80
2018-04-18T16:43:06.895Z,22.80
2018-04-18T16:45:35.048Z,22.80
2018-04-18T16:48:09.916Z,22.70
2018-04-18T16:50:43.520Z,22.60
2018-04-18T16:53:13.796Z,22.60
2018-04-18T16:55:44.169Z,22.60
2018-04-18T16:58:13.696Z,22.50
2018-04-18T17:04:04.451Z,22.40
2018-04-18T17:06:32.033Z,22.40
2018-04-18T17:09:01.622Z,22.30
2018-04-18T17:11:33.463Z,22.30
2018-04-18T17:14:05.689Z,22.20
2018-04-18T17:16:42.151Z,22.10
2018-04-18T17:19:17.537Z,22.10
2018-04-18T17:21:45.884Z,22.00
2018-04-18T17:24:16.196Z,21.90
2018-04-18T17:26:45.411Z,21.90
2018-04-18T17:29:14.876Z,21.90
2018-04-18T17:31:43.065Z,21.90
2018-04-18T17:34:10.643Z,21.90
2018-04-18T17:36:40.541Z,21.80
2018-04-18T17:39:10.973Z,21.70
2018-04-18T17:41:43.668Z,21.50
2018-04-18T17:44:42.509Z,21.50
2018-04-18T17:47:15.679Z,21.40
2018-04-18T17:49:47.500Z,21.30
2018-04-18T17:52:17.245Z,21.10
2018-04-18T17:54:48.426Z,21.20
2018-04-18T17:57:16.158Z,21.00
2018-04-18T18:00:06.157Z,21.00
2018-04-18T18:02:34.446Z,21.00
2018-04-18T18:05:03.190Z,21.00
2018-04-18T18:07:34.188Z,21.00
2018-04-18T18:10:03.849Z,20.90
2018-04-18T18:12:39.842Z,20.80
2018-04-18T18:19:07.222Z,20.50
2018-04-18T18:21:37.518Z,20.40
2018-04-18T18:24:06.745Z,20.40
2018-04-18T18:26:38.552Z,20.30
2018-04-18T18:29:16.754Z,20.20
2018-04-18T18:31:50.741Z,20.10
2018-04-18T18:34:18.303Z,20.00
2018-04-18T18:36:45.890Z,19.70
2018-04-18T18:39:13.919Z,19.70
2018-04-18T18:41:41.801Z,19.50
2018-04-18T18:44:12.912Z,19.40
2018-04-18T18:46:42.749Z,19.20
2018-04-18T18:49:10.321Z,19.10
2018-04-18T18:51:38.649Z,18.90
2018-04-18T18:54:06.465Z,18.80
2018-04-18T18:56:36.403Z,18.80
2018-04-18T18:59:03.973Z,18.70
2018-04-18T19:01:33.165Z,18.60
2018-04-18T19:04:01.719Z,18.40
2018-04-18T19:06:29.671Z,18.40
2018-04-18T19:08:58.745Z,18.20
2018-04-18T19:11:29.703Z,18.00
2018-04-18T19:13:57.521Z,18.00
2018-04-18T19:16:26.727Z,17.90
2018-04-18T19:18:55.296Z,17.80
2018-04-18T19:21:26.228Z,17.60
2018-04-18T19:23:57.152Z,17.60
2018-04-18T19:26:26.059Z,17.50
2018-04-18T19:28:53.892Z,17.40
2018-04-18T19:31:24.269Z,17.30
2018-04-18T19:33:52.586Z,17.20
2018-04-18T19:36:21.334Z,17.10
2018-04-18T19:38:51.303Z,17.00
2018-04-18T19:41:21.210Z,16.90
2018-04-18T19:43:49.195Z,16.90
2018-04-18T19:46:17.508Z,16.80
2018-04-18T19:48:45.108Z,16.70
2018-04-18T19:51:13.522Z,16.80
2018-04-18T19:53:41.062Z,16.70
2018-04-18T19:56:09.732Z,16.60
2018-04-18T19:58:46.800Z,16.60
2018-04-18T20:01:20.190Z,16.50
2018-04-18T20:03:54.051Z,16.40
2018-04-18T20:06:24.974Z,16.30
2018-04-18T20:08:55.659Z,16.30
2018-04-18T20:11:28.168Z,16.30
2018-04-18T20:13:58.879Z,16.30
2018-04-18T20:16:29.879Z,16.20
2018-04-18T20:19:02.597Z,16.20
2018-04-18T20:21:35.502Z,16.20
2018-04-18T20:24:06.049Z,16.10
2018-04-18T20:26:38.401Z,16.20
2018-04-18T20:29:08.894Z,16.10
2018-04-18T20:31:39.395Z,16.20
2018-04-18T20:34:09.350Z,16.20
2018-04-18T20:36:47.512Z,16.10
2018-04-18T20:39:20.072Z,16.00
2018-04-18T20:41:56.167Z,15.90
2018-04-18T20:44:32.683Z,15.80
2018-04-18T20:47:04.533Z,15.80
2018-04-18T20:49:35.101Z,15.90
2018-04-18T20:52:05.169Z,16.00
2018-04-18T20:54:35.422Z,15.90
2018-04-18T20:57:05.921Z,15.80
2018-04-18T20:59:41.375Z,15.80
2018-04-18T21:02:13.453Z,15.70
2018-04-18T21:05:02.948Z,15.70
2018-04-18T21:07:32.715Z,15.70
2018-04-18T21:10:01.249Z,15.60
2018-04-18T21:12:29.064Z,15.60
2018-04-18T21:14:58.987Z,15.50
2018-04-18T21:17:29.113Z,15.40
2018-04-18T21:20:02.839Z,15.40
2018-04-18T21:22:32.920Z,15.40
2018-04-18T21:25:04.466Z,15.30
2018-04-18T21:27:34.927Z,15.20
2018-04-18T21:30:05.967Z,15.10
2018-04-18T21:32:36.785Z,15.10
2018-04-18T21:35:35.078Z,15.10
2018-04-18T21:38:05.979Z,15.00
2018-04-18T21:40:41.122Z,14.90
2018-04-18T21:43:13.663Z,14.80
2018-04-18T21:45:49.255Z,14.70
2018-04-18T21:48:20.162Z,14.60
2018-04-18T21:50:49.951Z,14.60
2018-04-18T21:53:20.125Z,14.50
2018-04-18T21:55:51.318Z,14.40
2018-04-18T21:58:26.214Z,14.40
2018-04-18T22:01:01.651Z,14.30
2018-04-18T22:03:36.870Z,14.20
2018-04-18T22:06:09.337Z,14.10
2018-04-18T22:08:43.464Z,14.10
2018-04-18T22:11:14.864Z,13.90
2018-04-18T22:13:44.229Z,13.80
2018-04-18T22:16:16.958Z,13.80
2018-04-18T22:18:48.130Z,13.60
2018-04-18T22:21:17.874Z,13.60
2018-04-18T22:23:54.501Z,13.50
2018-04-18T22:26:25.272Z,13.50
2018-04-18T22:28:58.236Z,13.30
2018-04-18T22:31:33.591Z,13.30
2018-04-18T22:34:03.006Z,13.40
2018-04-18T22:36:34.259Z,13.40
2018-04-18T22:39:04.458Z,13.20
2018-04-18T22:41:35.761Z,13.10
2018-04-18T22:44:12.157Z,13.00
2018-04-18T22:46:44.260Z,13.00
2018-04-18T22:49:16.846Z,12.90
2018-04-18T22:51:54.289Z,12.80
2018-04-18T22:54:24.334Z,12.80
2018-04-18T22:56:54.799Z,12.80
2018-04-18T22:59:29.830Z,12.80
2018-04-18T23:02:00.380Z,12.70
2018-04-18T23:04:30.636Z,12.70
2018-04-18T23:07:06.234Z,12.60
2018-04-18T23:09:42.466Z,12.60
2018-04-18T23:12:18.169Z,12.60
2018-04-18T23:14:52.421Z,12.60
2018-04-18T23:17:23.187Z,12.60
2018-04-18T23:20:23.353Z,12.50
2018-04-18T23:22:53.400Z,12.50
2018-04-18T23:25:24.143Z,12.50
2018-04-18T23:27:56.616Z,12.50
2018-04-18T23:30:32.344Z,12.40
2018-04-18T23:33:04.694Z,12.40
2018-04-18T23:36:13.051Z,12.40
2018-04-18T23:38:47.688Z,12.40
2018-04-18T23:41:18.357Z,12.30
2018-04-18T23:43:48.825Z,12.30
2018-04-18T23:46:19.253Z,12.20
2018-04-18T23:48:49.587Z,12.10
2018-04-18T23:51:21.221Z,12.10
2018-04-18T23:53:51.278Z,11.90
2018-04-18T23:56:23.924Z,11.90
2018-04-18T23:58:53.999Z,11.90
